Time,TemperatureF,DewpointF,PressureIn,WindDirection,WindDirectionDegrees,WindSpeedMPH,WindSpeedGustMPH,Humidity,HourlyPrecipIn,Conditions,Clouds,dailyrainin,SoftwareType,DateUTC
2013-08-31 00:01:00,74.5,71.1,29.93,SW,234,2.0,4.0,89,0.00,,,0.00,meteohub,2013-08-31 04:01:00,
2013-08-31 00:02:00,74.5,71.1,29.92,SW,233,0.0,4.0,89,0.00,,,0.00,meteohub,2013-08-31 04:02:00,
2013-08-31 00:03:00,74.5,71.1,29.92,SW,229,0.0,4.0,89,0.00,,,0.00,meteohub,2013-08-31 04:03:00,
2013-08-31 00:08:00,74.5,71.1,29.92,WSW,255,0.0,5.0,89,0.00,,,0.00,meteohub,2013-08-31 04:08:00,
2013-08-31 00:13:00,74.5,71.1,29.92,WNW,294,2.0,5.0,89,0.00,,,0.00,meteohub,2013-08-31 04:13:00,
2013-08-31 00:18:00,74.5,71.1,29.92,West,267,2.0,6.0,89,0.00,,,0.00,meteohub,2013-08-31 04:18:00,
2013-08-31 00:23:00,74.5,71.1,29.92,ESE,117,3.0,6.0,89,0.00,,,0.00,meteohub,2013-08-31 04:23:00,
2013-08-31 00:28:00,74.5,71.1,29.92,NW,309,0.0,6.0,89,0.00,,,0.00,meteohub,2013-08-31 04:28:00,
2013-08-31 00:33:00,74.3,70.9,29.91,SW,233,0.0,6.0,89,0.00,,,0.00,meteohub,2013-08-31 04:33:00,
2013-08-31 00:38:00,74.3,70.9,29.92,WNW,293,0.0,3.0,89,0.00,,,0.00,meteohub,2013-08-31 04:38:00,
2013-08-31 00:43:00,74.3,70.9,29.91,NW,319,2.0,8.0,89,0.00,,,0.00,meteohub,2013-08-31 04:43:00,
2013-08-31 00:48:00,74.1,70.7,29.91,South,173,1.0,8.0,89,0.00,,,0.00,meteohub,2013-08-31 04:48:00,
2013-08-31 00:53:00,74.1,70.7,29.92,SSE,162,5.0,8.0,89,0.00,,,0.00,meteohub,2013-08-31 04:53:00,
2013-08-31 00:58:00,74.1,70.7,29.92,WSW,242,2.0,7.0,89,0.00,,,0.00,meteohub,2013-08-31 04:58:00,
2013-08-31 01:03:00,74.1,70.7,29.92,WNW,285,0.0,7.0,89,0.00,,,0.00,meteohub,2013-08-31 05:03:00,
2013-08-31 01:08:00,73.9,70.5,29.92,WSW,255,0.0,7.0,89,0.00,,,0.00,meteohub,2013-08-31 05:08:00,
2013-08-31 01:13:00,73.9,70.5,29.92,SSE,165,4.0,7.0,89,0.00,,,0.00,meteohub,2013-08-31 05:13:00,
2013-08-31 01:18:00,73.9,70.5,29.93,SSE,168,0.0,5.0,89,0.00,,,0.00,meteohub,2013-08-31 05:18:00,
2013-08-31 01:23:00,73.9,70.5,29.92,WNW,302,5.0,5.0,89,0.00,,,0.00,meteohub,2013-08-31 05:23:00,
2013-08-31 01:28:00,73.8,70.3,29.92,NW,304,0.0,5.0,89,0.00,,,0.00,meteohub,2013-08-31 05:28:00,
2013-08-31 01:33:00,73.8,70.7,29.92,NNW,328,0.0,5.0,90,0.00,,,0.00,meteohub,2013-08-31 05:33:00,
2013-08-31 01:38:00,73.8,70.7,29.92,West,269,0.0,5.0,90,0.00,,,0.00,meteohub,2013-08-31 05:38:00,
2013-08-31 01:43:00,73.8,70.7,29.91,SE,138,0.0,5.0,90,0.00,,,0.00,meteohub,2013-08-31 05:43:00,
2013-08-31 01:48:00,73.6,70.5,29.91,SSE,160,0.0,5.0,90,0.00,,,0.00,meteohub,2013-08-31 05:48:00,
2013-08-31 01:53:00,73.6,70.5,29.91,SW,219,0.0,5.0,90,0.00,,,0.00,meteohub,2013-08-31 05:53:00,
2013-08-31 01:59:00,73.2,70.2,29.91,West,266,0.0,3.0,90,0.00,,,0.00,meteohub,2013-08-31 05:59:00,
2013-08-31 02:04:00,73.2,70.2,29.91,SSW,210,0.0,2.0,90,0.00,,,0.00,meteohub,2013-08-31 06:04:00,
2013-08-31 02:09:00,73.2,70.2,29.91,SSE,160,0.0,3.0,90,0.00,,,0.00,meteohub,2013-08-31 06:09:00,
2013-08-31 02:14:00,73.0,70.0,29.91,SSE,167,0.0,4.0,90,0.00,,,0.00,meteohub,2013-08-31 06:14:00,
2013-08-31 02:19:00,73.0,70.0,29.91,SW,222,2.0,5.0,90,0.00,,,0.00,meteohub,2013-08-31 06:19:00,
2013-08-31 02:24:00,72.9,70.2,29.91,SW,226,0.0,5.0,91,0.00,,,0.00,meteohub,2013-08-31 06:24:00,
2013-08-31 02:29:00,72.9,70.2,29.91,SSW,194,0.0,5.0,91,0.00,,,0.00,meteohub,2013-08-31 06:29:00,
2013-08-31 02:34:00,72.7,70.0,29.91,NW,308,0.0,4.0,91,0.00,,,0.00,meteohub,2013-08-31 06:34:00,
2013-08-31 02:39:00,72.7,70.0,29.91,SSW,197,0.0,4.0,91,0.00,,,0.00,meteohub,2013-08-31 06:39:00,
2013-08-31 02:44:00,72.7,70.0,29.91,SW,221,2.0,3.0,91,0.00,,,0.00,meteohub,2013-08-31 06:44:00,
2013-08-31 02:49:00,72.5,69.8,29.91,West,259,0.0,4.0,91,0.00,,,0.00,meteohub,2013-08-31 06:49:00,
2013-08-31 02:54:00,72.3,69.6,29.91,NW,305,0.0,4.0,91,0.00,,,0.00,meteohub,2013-08-31 06:54:00,
2013-08-31 02:59:00,72.3,69.6,29.91,WNW,290,0.0,4.0,91,0.00,,,0.00,meteohub,2013-08-31 06:59:00,
2013-08-31 03:04:00,72.3,69.6,29.91,WNW,302,1.0,3.0,91,0.00,,,0.00,meteohub,2013-08-31 07:04:00,
2013-08-31 03:09:00,72.1,69.4,29.91,SSW,203,0.0,3.0,91,0.00,,,0.00,meteohub,2013-08-31 07:09:00,
2013-08-31 03:14:00,72.1,69.4,29.91,SSW,201,1.0,3.0,91,0.00,,,0.00,meteohub,2013-08-31 07:14:00,
2013-08-31 03:19:00,72.1,69.4,29.91,WNW,294,0.0,3.0,91,0.00,,,0.00,meteohub,2013-08-31 07:19:00,
2013-08-31 03:24:00,72.0,69.4,29.91,South,190,0.0,3.0,92,0.00,,,0.00,meteohub,2013-08-31 07:24:00,
2013-08-31 03:29:00,72.0,69.4,29.91,SW,219,0.0,3.0,92,0.00,,,0.00,meteohub,2013-08-31 07:29:00,
2013-08-31 03:34:00,71.8,69.3,29.91,East,82,1.0,3.0,92,0.00,,,0.00,meteohub,2013-08-31 07:34:00,
2013-08-31 03:39:00,71.8,69.3,29.91,NNW,329,0.0,3.0,92,0.00,,,0.00,meteohub,2013-08-31 07:39:00,
2013-08-31 03:44:00,71.6,69.1,29.91,South,174,0.0,3.0,92,0.00,,,0.00,meteohub,2013-08-31 07:44:00,
2013-08-31 03:49:00,71.4,68.9,29.91,NW,309,1.0,3.0,92,0.00,,,0.00,meteohub,2013-08-31 07:49:00,
2013-08-31 03:54:00,71.4,68.9,29.91,SW,214,0.0,3.0,92,0.00,,,0.00,meteohub,2013-08-31 07:54:00,
2013-08-31 03:59:00,71.4,68.9,29.91,SSW,198,0.0,2.0,92,0.00,,,0.00,meteohub,2013-08-31 07:59:00,
2013-08-31 04:05:00,71.2,69.1,29.91,SSE,165,0.0,2.0,93,0.00,,,0.00,meteohub,2013-08-31 08:05:00,
2013-08-31 04:10:00,71.2,69.1,29.91,SE,134,2.0,3.0,93,0.00,,,0.00,meteohub,2013-08-31 08:10:00,
2013-08-31 04:15:00,71.2,69.1,29.91,ESE,121,0.0,3.0,93,0.00,,,0.00,meteohub,2013-08-31 08:15:00,
2013-08-31 04:20:00,71.1,68.9,29.91,ESE,120,0.0,3.0,93,0.00,,,0.00,meteohub,2013-08-31 08:20:00,
2013-08-31 04:25:00,71.1,68.9,29.90,SSE,164,2.0,4.0,93,0.00,,,0.00,meteohub,2013-08-31 08:25:00,
2013-08-31 04:30:00,71.2,69.1,29.90,West,269,1.0,4.0,93,0.00,,,0.00,meteohub,2013-08-31 08:30:00,
2013-08-31 04:35:00,71.2,69.1,29.90,WNW,291,3.0,5.0,93,0.00,,,0.00,meteohub,2013-08-31 08:35:00,
2013-08-31 04:40:00,71.4,69.3,29.91,NW,305,0.0,5.0,93,0.00,,,0.00,meteohub,2013-08-31 08:40:00,
2013-08-31 04:45:00,71.6,69.4,29.91,WNW,287,2.0,8.0,93,0.00,,,0.00,meteohub,2013-08-31 08:45:00,
2013-08-31 04:50:00,71.8,69.6,29.91,SW,228,0.0,8.0,93,0.00,,,0.00,meteohub,2013-08-31 08:50:00,
2013-08-31 04:55:00,71.8,69.6,29.91,WNW,290,0.0,8.0,93,0.00,,,0.00,meteohub,2013-08-31 08:55:00,
2013-08-31 05:00:00,72.0,69.8,29.91,WNW,293,1.0,8.0,93,0.00,,,0.00,meteohub,2013-08-31 09:00:00,
2013-08-31 05:05:00,72.0,69.8,29.91,WNW,293,3.0,4.0,93,0.00,,,0.00,meteohub,2013-08-31 09:05:00,
2013-08-31 05:10:00,72.1,70.0,29.91,West,271,0.0,4.0,93,0.00,,,0.00,meteohub,2013-08-31 09:10:00,
2013-08-31 05:15:00,72.1,70.0,29.90,SE,142,0.0,4.0,93,0.00,,,0.00,meteohub,2013-08-31 09:15:00,
2013-08-31 05:20:00,72.1,70.0,29.90,WNW,285,0.0,3.0,93,0.00,,,0.00,meteohub,2013-08-31 09:20:00,
2013-08-31 05:25:00,72.3,69.8,29.90,South,191,2.0,2.0,92,0.00,,,0.00,meteohub,2013-08-31 09:25:00,
2013-08-31 05:30:00,72.3,69.8,29.90,WSW,238,0.0,3.0,92,0.00,,,0.00,meteohub,2013-08-31 09:30:00,
2013-08-31 05:35:00,72.3,69.8,29.90,SE,131,0.0,3.0,92,0.00,,,0.00,meteohub,2013-08-31 09:35:00,
2013-08-31 05:40:00,72.3,69.8,29.90,SW,217,0.0,3.0,92,0.00,,,0.00,meteohub,2013-08-31 09:40:00,
2013-08-31 05:45:00,72.3,69.8,29.90,West,266,0.0,2.0,92,0.00,,,0.00,meteohub,2013-08-31 09:45:00,
2013-08-31 05:50:00,72.5,70.3,29.91,WNW,287,0.0,2.0,93,0.00,,,0.00,meteohub,2013-08-31 09:50:00,
2013-08-31 05:55:00,72.7,70.2,29.91,WSW,249,0.0,2.0,92,0.00,,,0.00,meteohub,2013-08-31 09:55:00,
2013-08-31 06:00:00,72.7,70.2,29.91,WSW,249,0.0,6.0,92,0.00,,,0.00,meteohub,2013-08-31 10:00:00,
2013-08-31 06:05:00,72.7,70.2,29.90,West,278,0.0,6.0,92,0.00,,,0.00,meteohub,2013-08-31 10:05:00,
2013-08-31 06:10:00,72.7,70.2,29.91,SSW,210,0.0,6.0,92,0.00,,,0.00,meteohub,2013-08-31 10:10:00,
2013-08-31 06:15:00,72.5,70.0,29.91,South,190,0.0,1.0,92,0.00,,,0.00,meteohub,2013-08-31 10:15:00,
2013-08-31 06:20:00,72.3,69.8,29.90,SE,143,0.0,1.0,92,0.00,,,0.00,meteohub,2013-08-31 10:20:00,
2013-08-31 06:25:00,72.3,69.8,29.90,NW,307,1.0,1.0,92,0.00,,,0.00,meteohub,2013-08-31 10:25:00,
2013-08-31 06:30:00,72.3,70.2,29.90,South,179,0.0,2.0,93,0.00,,,0.00,meteohub,2013-08-31 10:30:00,
2013-08-31 06:35:00,72.3,70.2,29.90,South,177,0.0,2.0,93,0.00,,,0.00,meteohub,2013-08-31 10:35:00,
2013-08-31 06:40:00,72.1,70.0,29.90,SSE,157,0.0,2.0,93,0.00,,,0.00,meteohub,2013-08-31 10:40:00,
2013-08-31 06:45:00,72.1,70.0,29.90,WSW,239,0.0,2.0,93,0.00,,,0.00,meteohub,2013-08-31 10:45:00,
2013-08-31 06:50:00,72.1,70.0,29.90,SSE,149,0.0,3.0,93,0.00,,,0.00,meteohub,2013-08-31 10:50:00,
2013-08-31 06:55:00,72.1,70.0,29.89,West,274,0.0,4.0,93,0.00,,,0.00,meteohub,2013-08-31 10:55:00,
2013-08-31 07:00:00,72.1,70.0,29.89,SSW,212,0.0,4.0,93,0.00,,,0.00,meteohub,2013-08-31 11:00:00,
2013-08-31 07:05:00,72.1,70.0,29.90,SE,134,0.0,4.0,93,0.00,,,0.00,meteohub,2013-08-31 11:05:00,
2013-08-31 07:10:00,72.1,70.3,29.90,SSW,205,0.0,2.0,94,0.00,,,0.00,meteohub,2013-08-31 11:10:00,
2013-08-31 07:15:00,72.1,70.3,29.90,SE,125,0.0,2.0,94,0.00,,,0.00,meteohub,2013-08-31 11:15:00,
2013-08-31 07:20:00,72.3,70.5,29.90,SSW,195,1.0,3.0,94,0.00,,,0.00,meteohub,2013-08-31 11:20:00,
2013-08-31 07:25:00,72.3,70.5,29.89,SW,224,1.0,4.0,94,0.00,,,0.00,meteohub,2013-08-31 11:25:00,
2013-08-31 07:30:00,72.3,70.5,29.90,SSE,159,1.0,4.0,94,0.00,,,0.00,meteohub,2013-08-31 11:30:00,
2013-08-31 07:35:00,72.5,70.3,29.90,WNW,284,0.0,4.0,93,0.00,,,0.00,meteohub,2013-08-31 11:35:00,
2013-08-31 07:41:00,72.7,70.5,29.90,SW,231,0.0,4.0,93,0.00,,,0.00,meteohub,2013-08-31 11:41:00,
2013-08-31 07:46:00,72.7,70.5,29.90,South,169,2.0,4.0,93,0.00,,,0.00,meteohub,2013-08-31 11:46:00,
2013-08-31 07:51:00,72.9,70.7,29.90,SE,127,0.0,4.0,93,0.00,,,0.00,meteohub,2013-08-31 11:51:00,
2013-08-31 07:56:00,73.0,70.9,29.90,SSE,162,0.0,5.0,93,0.00,,,0.00,meteohub,2013-08-31 11:56:00,
2013-08-31 08:01:00,73.0,70.9,29.90,WSW,246,0.0,5.0,93,0.00,,,0.00,meteohub,2013-08-31 12:01:00,
2013-08-31 08:06:00,73.2,71.1,29.90,NW,307,0.0,5.0,93,0.00,,,0.00,meteohub,2013-08-31 12:06:00,
2013-08-31 08:11:00,73.4,70.9,29.90,East,97,0.0,4.0,92,0.00,,,0.00,meteohub,2013-08-31 12:11:00,
2013-08-31 08:16:00,73.6,71.1,29.90,SW,219,0.0,4.0,92,0.00,,,0.00,meteohub,2013-08-31 12:16:00,
2013-08-31 08:21:00,73.6,71.1,29.90,SSE,156,0.0,4.0,92,0.00,,,0.00,meteohub,2013-08-31 12:21:00,
2013-08-31 08:26:00,73.8,71.2,29.90,NW,304,1.0,3.0,92,0.00,,,0.00,meteohub,2013-08-31 12:26:00,
2013-08-31 08:31:00,73.9,71.4,29.90,WSW,255,0.0,3.0,92,0.00,,,0.00,meteohub,2013-08-31 12:31:00,
2013-08-31 08:36:00,74.1,71.2,29.89,SSE,149,1.0,5.0,91,0.00,,,0.00,meteohub,2013-08-31 12:36:00,
2013-08-31 08:41:00,74.5,71.6,29.89,South,186,4.0,6.0,91,0.00,,,0.00,meteohub,2013-08-31 12:41:00,
2013-08-31 08:46:00,74.7,71.6,29.89,South,186,2.0,6.0,90,0.00,,,0.00,meteohub,2013-08-31 12:46:00,
2013-08-31 08:51:00,74.8,71.8,29.89,SW,226,0.0,6.0,90,0.00,,,0.00,meteohub,2013-08-31 12:51:00,
2013-08-31 08:56:00,75.0,71.6,29.89,WSW,245,0.0,4.0,89,0.00,,,0.00,meteohub,2013-08-31 12:56:00,
2013-08-31 09:01:00,75.2,71.8,29.89,SW,224,0.0,5.0,89,0.00,,,0.00,meteohub,2013-08-31 13:01:00,
2013-08-31 09:06:00,75.4,72.0,29.89,South,175,0.0,5.0,89,0.00,,,0.00,meteohub,2013-08-31 13:06:00,
2013-08-31 09:11:00,75.6,72.1,29.89,SW,226,0.0,5.0,89,0.00,,,0.00,meteohub,2013-08-31 13:11:00,
2013-08-31 09:16:00,75.7,72.3,29.89,West,278,1.0,3.0,89,0.00,,,0.00,meteohub,2013-08-31 13:16:00,
2013-08-31 09:21:00,75.9,72.1,29.90,NW,323,0.0,5.0,88,0.00,,,0.00,meteohub,2013-08-31 13:21:00,
2013-08-31 09:26:00,76.1,72.0,29.90,West,271,0.0,5.0,87,0.00,,,0.00,meteohub,2013-08-31 13:26:00,
2013-08-31 09:31:00,76.3,72.1,29.90,WNW,294,3.0,5.0,87,0.00,,,0.00,meteohub,2013-08-31 13:31:00,
2013-08-31 09:36:00,76.6,72.1,29.90,NW,311,2.0,3.0,86,0.00,,,0.00,meteohub,2013-08-31 13:36:00,
2013-08-31 09:41:00,76.8,72.3,29.91,NW,309,2.0,5.0,86,0.00,,,0.00,meteohub,2013-08-31 13:41:00,
2013-08-31 09:46:00,76.8,72.0,29.90,WSW,239,2.0,5.0,85,0.00,,,0.00,meteohub,2013-08-31 13:46:00,
2013-08-31 09:51:00,76.8,72.0,29.90,WNW,299,2.0,8.0,85,0.00,,,0.00,meteohub,2013-08-31 13:51:00,
2013-08-31 09:56:00,76.8,72.3,29.90,West,276,3.0,8.0,86,0.00,,,0.00,meteohub,2013-08-31 13:56:00,
2013-08-31 10:01:00,76.8,72.0,29.91,WNW,300,2.0,8.0,85,0.00,,,0.00,meteohub,2013-08-31 14:01:00,
2013-08-31 10:06:00,76.8,72.3,29.90,WNW,292,6.0,6.0,86,0.00,,,0.00,meteohub,2013-08-31 14:06:00,
2013-08-31 10:11:00,76.8,72.0,29.91,NW,309,1.0,6.0,85,0.00,,,0.00,meteohub,2013-08-31 14:11:00,
2013-08-31 10:16:00,76.8,72.0,29.91,WNW,291,4.0,6.0,85,0.00,,,0.00,meteohub,2013-08-31 14:16:00,
2013-08-31 10:21:00,76.8,72.3,29.91,WNW,292,1.0,6.0,86,0.00,,,0.00,meteohub,2013-08-31 14:21:00,
2013-08-31 10:26:00,76.8,72.0,29.91,NNW,332,1.0,6.0,85,0.00,,,0.00,meteohub,2013-08-31 14:26:00,
2013-08-31 10:31:00,77.0,72.1,29.91,NW,312,3.0,6.0,85,0.00,,,0.00,meteohub,2013-08-31 14:31:00,
2013-08-31 10:36:00,76.8,72.0,29.91,NNW,342,2.0,6.0,85,0.00,,,0.00,meteohub,2013-08-31 14:36:00,
2013-08-31 10:41:00,77.0,72.5,29.91,NNW,332,2.0,6.0,86,0.00,,,0.00,meteohub,2013-08-31 14:41:00,
2013-08-31 10:46:00,77.2,72.7,29.91,WSW,255,0.0,6.0,86,0.00,,,0.00,meteohub,2013-08-31 14:46:00,
2013-08-31 10:51:00,77.2,72.3,29.91,West,277,2.0,5.0,85,0.00,,,0.00,meteohub,2013-08-31 14:51:00,
2013-08-31 10:56:00,77.2,72.3,29.91,WNW,288,1.0,6.0,85,0.00,,,0.00,meteohub,2013-08-31 14:56:00,
2013-08-31 11:02:00,77.4,72.5,29.91,WNW,293,0.0,6.0,85,0.00,,,0.00,meteohub,2013-08-31 15:02:00,
2013-08-31 11:06:00,77.5,72.7,29.90,SW,219,1.0,6.0,85,0.00,,,0.00,meteohub,2013-08-31 15:06:00,
2013-08-31 11:12:00,78.1,72.9,29.90,SE,136,0.0,5.0,84,0.00,,,0.00,meteohub,2013-08-31 15:12:00,
2013-08-31 11:17:00,78.3,73.0,29.91,SSE,167,0.0,5.0,84,0.00,,,0.00,meteohub,2013-08-31 15:17:00,
2013-08-31 11:22:00,78.6,73.0,29.91,ESE,116,1.0,5.0,83,0.00,,,0.00,meteohub,2013-08-31 15:22:00,
2013-08-31 11:27:00,78.6,73.4,29.91,SSW,200,4.0,5.0,84,0.00,,,0.00,meteohub,2013-08-31 15:27:00,
2013-08-31 11:32:00,78.6,73.0,29.91,SSW,210,5.0,5.0,83,0.00,,,0.00,meteohub,2013-08-31 15:32:00,
2013-08-31 11:37:00,78.8,72.9,29.90,SE,139,2.0,6.0,82,0.00,,,0.00,meteohub,2013-08-31 15:37:00,
2013-08-31 11:42:00,78.8,73.2,29.90,ESE,121,1.0,6.0,83,0.00,,,0.00,meteohub,2013-08-31 15:42:00,
2013-08-31 11:47:00,79.0,73.4,29.90,SW,221,2.0,8.0,83,0.00,,,0.00,meteohub,2013-08-31 15:47:00,
2013-08-31 11:52:00,79.7,74.1,29.90,WNW,300,3.0,8.0,83,0.00,,,0.00,meteohub,2013-08-31 15:52:00,
2013-08-31 11:57:00,80.4,73.8,29.90,NNW,342,1.0,8.0,80,0.00,,,0.00,meteohub,2013-08-31 15:57:00,
2013-08-31 12:02:00,81.0,73.8,29.89,SW,224,0.0,6.0,79,0.00,,,0.00,meteohub,2013-08-31 16:02:00,
2013-08-31 12:07:00,81.5,73.9,29.89,SW,217,1.0,6.0,78,0.00,,,0.00,meteohub,2013-08-31 16:07:00,
2013-08-31 12:12:00,81.7,74.1,29.89,SE,127,0.0,7.0,78,0.00,,,0.00,meteohub,2013-08-31 16:12:00,
2013-08-31 12:17:00,81.7,74.1,29.89,West,259,0.0,8.0,78,0.00,,,0.00,meteohub,2013-08-31 16:17:00,
2013-08-31 12:22:00,82.0,74.1,29.89,SSW,197,2.0,8.0,77,0.00,,,0.00,meteohub,2013-08-31 16:22:00,
2013-08-31 12:27:00,82.2,73.9,29.89,SW,235,0.0,8.0,76,0.00,,,0.00,meteohub,2013-08-31 16:27:00,
2013-08-31 12:32:00,82.2,73.9,29.89,SSE,158,2.0,7.0,76,0.00,,,0.00,meteohub,2013-08-31 16:32:00,
2013-08-31 12:37:00,82.2,73.6,29.89,NW,318,0.0,7.0,75,0.00,,,0.00,meteohub,2013-08-31 16:37:00,
2013-08-31 12:42:00,82.2,73.9,29.88,South,183,3.0,7.0,76,0.00,,,0.00,meteohub,2013-08-31 16:42:00,
2013-08-31 12:47:00,82.6,73.8,29.88,WNW,293,3.0,7.0,75,0.00,,,0.00,meteohub,2013-08-31 16:47:00,
2013-08-31 12:52:00,82.2,74.3,29.89,East,88,1.0,7.0,77,0.00,,,0.00,meteohub,2013-08-31 16:52:00,
2013-08-31 12:57:00,82.8,73.9,29.89,East,80,2.0,7.0,75,0.00,,,0.00,meteohub,2013-08-31 16:57:00,
2013-08-31 13:02:00,82.6,73.8,29.89,NW,307,2.0,8.0,75,0.00,,,0.00,meteohub,2013-08-31 17:02:00,
2013-08-31 13:07:00,82.6,74.3,29.88,South,173,3.0,8.0,76,0.00,,,0.00,meteohub,2013-08-31 17:07:00,
2013-08-31 13:12:00,83.1,73.9,29.88,SW,229,2.0,8.0,74,0.00,,,0.00,meteohub,2013-08-31 17:12:00,
2013-08-31 13:17:00,83.8,74.3,29.88,WNW,291,4.0,7.0,73,0.00,,,0.00,meteohub,2013-08-31 17:17:00,
2013-08-31 13:22:00,83.7,74.8,29.88,South,169,2.0,7.0,75,0.00,,,0.00,meteohub,2013-08-31 17:22:00,
2013-08-31 13:27:00,84.4,74.8,29.88,SSW,208,5.0,6.0,73,0.00,,,0.00,meteohub,2013-08-31 17:27:00,
2013-08-31 13:32:00,85.3,75.2,29.88,SSW,210,1.0,6.0,72,0.00,,,0.00,meteohub,2013-08-31 17:32:00,
2013-08-31 13:37:00,85.6,75.2,29.88,South,190,2.0,6.0,71,0.00,,,0.00,meteohub,2013-08-31 17:37:00,
2013-08-31 13:42:00,85.8,74.8,29.88,WSW,245,4.0,6.0,70,0.00,,,0.00,meteohub,2013-08-31 17:42:00,
2013-08-31 13:47:00,85.6,74.7,29.88,SW,222,3.0,10.0,70,0.00,,,0.00,meteohub,2013-08-31 17:47:00,
2013-08-31 13:52:00,86.0,75.6,29.88,NW,318,5.0,10.0,71,0.00,,,0.00,meteohub,2013-08-31 17:52:00,
2013-08-31 13:57:00,85.6,75.2,29.88,South,191,3.0,10.0,71,0.00,,,0.00,meteohub,2013-08-31 17:57:00,
2013-08-31 14:02:00,85.8,75.4,29.88,West,277,4.0,9.0,71,0.00,,,0.00,meteohub,2013-08-31 18:02:00,
2013-08-31 14:07:00,86.4,75.4,29.87,WNW,297,3.0,9.0,70,0.00,,,0.00,meteohub,2013-08-31 18:07:00,
2013-08-31 14:12:00,86.4,75.0,29.87,WNW,290,3.0,7.0,69,0.00,,,0.00,meteohub,2013-08-31 18:12:00,
2013-08-31 14:17:00,86.2,74.3,29.87,WNW,292,2.0,6.0,68,0.00,,,0.00,meteohub,2013-08-31 18:17:00,
2013-08-31 14:22:00,86.4,75.4,29.87,SSE,165,2.0,6.0,70,0.00,,,0.00,meteohub,2013-08-31 18:22:00,
2013-08-31 14:27:00,87.4,75.6,29.87,SE,136,3.0,6.0,68,0.00,,,0.00,meteohub,2013-08-31 18:27:00,
2013-08-31 14:32:00,87.8,75.9,29.87,WNW,298,1.0,6.0,68,0.00,,,0.00,meteohub,2013-08-31 18:32:00,
2013-08-31 14:37:00,88.3,75.9,29.86,NW,317,3.0,6.0,67,0.00,,,0.00,meteohub,2013-08-31 18:37:00,
2013-08-31 14:42:00,88.0,74.7,29.87,WNW,302,2.0,7.0,65,0.00,,,0.00,meteohub,2013-08-31 18:42:00,
2013-08-31 14:47:00,87.6,75.4,29.86,WSW,242,3.0,7.0,67,0.00,,,0.00,meteohub,2013-08-31 18:47:00,
2013-08-31 14:52:00,87.8,75.9,29.86,SE,125,2.0,7.0,68,0.00,,,0.00,meteohub,2013-08-31 18:52:00,
2013-08-31 14:57:00,87.4,75.6,29.86,SSW,198,3.0,9.0,68,0.00,,,0.00,meteohub,2013-08-31 18:57:00,
2013-08-31 15:02:00,87.6,75.4,29.86,SW,234,1.0,9.0,67,0.00,,,0.00,meteohub,2013-08-31 19:02:00,
2013-08-31 15:07:00,88.0,75.6,29.86,WSW,250,2.0,9.0,67,0.00,,,0.00,meteohub,2013-08-31 19:07:00,
2013-08-31 15:12:00,88.0,75.6,29.86,SSE,165,1.0,8.0,67,0.00,,,0.00,meteohub,2013-08-31 19:12:00,
2013-08-31 15:17:00,88.2,75.4,29.86,South,185,1.0,8.0,66,0.00,,,0.00,meteohub,2013-08-31 19:17:00,
2013-08-31 15:22:00,87.6,74.8,29.86,SSE,162,1.0,8.0,66,0.00,,,0.00,meteohub,2013-08-31 19:22:00,
2013-08-31 15:27:00,87.3,75.0,29.86,SSW,210,5.0,10.0,67,0.00,,,0.00,meteohub,2013-08-31 19:27:00,
2013-08-31 15:32:00,86.9,75.0,29.86,WSW,243,0.0,10.0,68,0.00,,,0.00,meteohub,2013-08-31 19:32:00,
2013-08-31 15:37:00,86.7,74.8,29.86,South,184,2.0,10.0,68,0.00,,,0.00,meteohub,2013-08-31 19:37:00,
2013-08-31 15:42:00,86.7,75.4,29.85,SSW,202,1.0,10.0,69,0.00,,,0.00,meteohub,2013-08-31 19:42:00,
2013-08-31 15:47:00,86.9,75.6,29.85,SSE,158,0.0,9.0,69,0.00,,,0.00,meteohub,2013-08-31 19:47:00,
2013-08-31 15:52:00,87.1,75.2,29.85,SSE,162,2.0,9.0,68,0.00,,,0.00,meteohub,2013-08-31 19:52:00,
2013-08-31 15:57:00,87.4,75.6,29.85,SSE,148,3.0,8.0,68,0.00,,,0.00,meteohub,2013-08-31 19:57:00,
2013-08-31 16:02:00,87.4,75.2,29.84,WSW,243,0.0,8.0,67,0.00,,,0.00,meteohub,2013-08-31 20:02:00,
2013-08-31 16:07:00,87.4,75.2,29.84,South,185,0.0,7.0,67,0.00,,,0.00,meteohub,2013-08-31 20:07:00,
2013-08-31 16:12:00,87.3,75.0,29.84,SW,214,3.0,7.0,67,0.00,,,0.00,meteohub,2013-08-31 20:12:00,
2013-08-31 16:17:00,87.1,75.2,29.84,SE,129,2.0,7.0,68,0.00,,,0.00,meteohub,2013-08-31 20:17:00,
2013-08-31 16:22:00,87.1,75.2,29.84,SE,138,3.0,7.0,68,0.00,,,0.00,meteohub,2013-08-31 20:22:00,
2013-08-31 16:27:00,86.9,75.6,29.83,SW,228,2.0,8.0,69,0.00,,,0.00,meteohub,2013-08-31 20:27:00,
2013-08-31 16:32:00,86.9,75.6,29.83,WSW,240,1.0,8.0,69,0.00,,,0.00,meteohub,2013-08-31 20:32:00,
2013-08-31 16:37:00,86.9,74.7,29.83,SSW,205,4.0,8.0,67,0.00,,,0.00,meteohub,2013-08-31 20:37:00,
2013-08-31 16:43:00,86.5,74.7,29.83,SSW,198,4.0,10.0,68,0.00,,,0.00,meteohub,2013-08-31 20:43:00,
2013-08-31 16:48:00,86.5,74.7,29.83,SW,229,4.0,10.0,68,0.00,,,0.00,meteohub,2013-08-31 20:48:00,
2013-08-31 16:53:00,86.5,75.2,29.83,SSW,204,1.0,10.0,69,0.00,,,0.00,meteohub,2013-08-31 20:53:00,
2013-08-31 16:58:00,86.5,75.2,29.83,NW,309,3.0,8.0,69,0.00,,,0.00,meteohub,2013-08-31 20:58:00,
2013-08-31 17:03:00,86.5,74.7,29.83,WNW,295,2.0,8.0,68,0.00,,,0.00,meteohub,2013-08-31 21:03:00,
2013-08-31 17:08:00,86.5,75.2,29.83,South,186,4.0,7.0,69,0.00,,,0.00,meteohub,2013-08-31 21:08:00,
2013-08-31 17:13:00,86.5,74.7,29.84,NNW,328,1.0,7.0,68,0.00,,,0.00,meteohub,2013-08-31 21:13:00,
2013-08-31 17:18:00,86.5,75.2,29.84,West,278,3.0,8.0,69,0.00,,,0.00,meteohub,2013-08-31 21:18:00,
2013-08-31 17:23:00,86.7,74.8,29.84,SSE,148,0.0,8.0,68,0.00,,,0.00,meteohub,2013-08-31 21:23:00,
2013-08-31 17:28:00,86.9,75.0,29.83,NW,315,3.0,8.0,68,0.00,,,0.00,meteohub,2013-08-31 21:28:00,
2013-08-31 17:33:00,87.1,75.2,29.84,NW,307,0.0,8.0,68,0.00,,,0.00,meteohub,2013-08-31 21:33:00,
2013-08-31 17:38:00,87.1,75.2,29.84,SW,217,1.0,8.0,68,0.00,,,0.00,meteohub,2013-08-31 21:38:00,
2013-08-31 17:43:00,87.1,75.2,29.84,SSW,204,2.0,7.0,68,0.00,,,0.00,meteohub,2013-08-31 21:43:00,
2013-08-31 17:48:00,86.9,75.0,29.84,SSE,155,3.0,6.0,68,0.00,,,0.00,meteohub,2013-08-31 21:48:00,
2013-08-31 17:53:00,86.7,75.4,29.84,SE,141,0.0,6.0,69,0.00,,,0.00,meteohub,2013-08-31 21:53:00,
2013-08-31 17:58:00,87.1,75.2,29.84,NW,312,0.0,5.0,68,0.00,,,0.00,meteohub,2013-08-31 21:58:00,
2013-08-31 18:03:00,86.7,74.5,29.84,South,173,1.0,8.0,67,0.00,,,0.00,meteohub,2013-08-31 22:03:00,
2013-08-31 18:08:00,86.4,74.1,29.84,SW,221,1.0,8.0,67,0.00,,,0.00,meteohub,2013-08-31 22:08:00,
2013-08-31 18:13:00,86.2,74.3,29.84,SW,225,1.0,8.0,68,0.00,,,0.00,meteohub,2013-08-31 22:13:00,
2013-08-31 18:18:00,85.8,74.5,29.84,WSW,245,0.0,7.0,69,0.00,,,0.00,meteohub,2013-08-31 22:18:00,
2013-08-31 18:23:00,85.6,74.3,29.84,SW,222,0.0,7.0,69,0.00,,,0.00,meteohub,2013-08-31 22:23:00,
2013-08-31 18:28:00,85.5,74.5,29.84,West,274,1.0,7.0,70,0.00,,,0.00,meteohub,2013-08-31 22:28:00,
2013-08-31 18:33:00,85.3,74.3,29.84,WSW,246,0.0,5.0,70,0.00,,,0.00,meteohub,2013-08-31 22:33:00,
2013-08-31 18:38:00,85.1,74.1,29.84,NW,304,0.0,5.0,70,0.00,,,0.00,meteohub,2013-08-31 22:38:00,
2013-08-31 18:43:00,84.9,74.5,29.84,SE,136,0.0,5.0,71,0.00,,,0.00,meteohub,2013-08-31 22:43:00,
2013-08-31 18:48:00,84.7,74.3,29.84,WSW,245,1.0,4.0,71,0.00,,,0.00,meteohub,2013-08-31 22:48:00,
2013-08-31 18:53:00,84.6,74.5,29.84,SE,132,1.0,6.0,72,0.00,,,0.00,meteohub,2013-08-31 22:53:00,
2013-08-31 18:58:00,84.6,74.5,29.84,SW,228,1.0,6.0,72,0.00,,,0.00,meteohub,2013-08-31 22:58:00,
2013-08-31 19:03:00,84.4,74.8,29.84,SSE,167,1.0,6.0,73,0.00,,,0.00,meteohub,2013-08-31 23:03:00,
2013-08-31 19:08:00,84.2,74.7,29.84,SSE,150,0.0,4.0,73,0.00,,,0.00,meteohub,2013-08-31 23:08:00,
2013-08-31 19:13:00,84.0,74.5,29.84,SSW,207,0.0,4.0,73,0.00,,,0.00,meteohub,2013-08-31 23:13:00,
2013-08-31 19:18:00,83.8,74.7,29.85,SW,214,0.0,4.0,74,0.00,,,0.00,meteohub,2013-08-31 23:18:00,
2013-08-31 19:23:00,83.8,74.7,29.85,SSW,204,0.0,3.0,74,0.00,,,0.00,meteohub,2013-08-31 23:23:00,
2013-08-31 19:28:00,83.7,74.8,29.85,SSW,195,0.0,4.0,75,0.00,,,0.00,meteohub,2013-08-31 23:28:00,
2013-08-31 19:33:00,83.7,74.8,29.86,South,179,0.0,4.0,75,0.00,,,0.00,meteohub,2013-08-31 23:33:00,
2013-08-31 19:38:00,83.5,74.7,29.86,SSE,150,1.0,4.0,75,0.00,,,0.00,meteohub,2013-08-31 23:38:00,
2013-08-31 19:43:00,83.3,75.0,29.86,SE,145,1.0,3.0,76,0.00,,,0.00,meteohub,2013-08-31 23:43:00,
2013-08-31 19:48:00,83.1,74.8,29.86,South,190,0.0,3.0,76,0.00,,,0.00,meteohub,2013-08-31 23:48:00,
2013-08-31 19:53:00,83.1,74.8,29.86,South,170,0.0,6.0,76,0.00,,,0.00,meteohub,2013-08-31 23:53:00,
2013-08-31 19:58:00,82.9,74.7,29.86,WSW,257,1.0,6.0,76,0.00,,,0.00,meteohub,2013-08-31 23:58:00,
2013-08-31 20:03:00,82.9,74.1,29.86,SW,233,0.0,6.0,75,0.00,,,0.00,meteohub,2013-09-01 00:03:00,
2013-08-31 20:08:00,82.9,74.1,29.86,SSE,151,0.0,4.0,75,0.00,,,0.00,meteohub,2013-09-01 00:08:00,
2013-08-31 20:14:00,82.9,74.1,29.86,West,263,0.0,4.0,75,0.00,,,0.00,meteohub,2013-09-01 00:14:00,
2013-08-31 20:19:00,82.8,73.9,29.86,South,172,0.0,5.0,75,0.00,,,0.00,meteohub,2013-09-01 00:19:00,
2013-08-31 20:24:00,82.8,73.9,29.86,SW,221,1.0,5.0,75,0.00,,,0.00,meteohub,2013-09-01 00:24:00,
2013-08-31 20:29:00,82.6,73.8,29.86,SSE,167,1.0,5.0,75,0.00,,,0.00,meteohub,2013-09-01 00:29:00,
2013-08-31 20:34:00,82.6,73.8,29.86,West,260,1.0,6.0,75,0.00,,,0.00,meteohub,2013-09-01 00:34:00,
2013-08-31 20:39:00,82.4,73.8,29.86,South,190,2.0,6.0,75,0.00,,,0.00,meteohub,2013-09-01 00:39:00,
2013-08-31 20:44:00,82.2,73.6,29.86,SW,226,0.0,7.0,75,0.00,,,0.00,meteohub,2013-09-01 00:44:00,
2013-08-31 20:49:00,82.2,73.6,29.86,West,270,0.0,7.0,75,0.00,,,0.00,meteohub,2013-09-01 00:49:00,
2013-08-31 20:54:00,82.0,73.8,29.86,SSW,207,0.0,7.0,76,0.00,,,0.00,meteohub,2013-09-01 00:54:00,
2013-08-31 20:59:00,82.0,73.8,29.86,South,179,2.0,4.0,76,0.00,,,0.00,meteohub,2013-09-01 00:59:00,
2013-08-31 21:04:00,81.9,73.6,29.86,SSW,203,1.0,6.0,76,0.00,,,0.00,meteohub,2013-09-01 01:04:00,
2013-08-31 21:09:00,81.7,73.4,29.86,South,183,2.0,6.0,76,0.00,,,0.00,meteohub,2013-09-01 01:09:00,
2013-08-31 21:14:00,81.7,73.8,29.86,SSE,157,2.0,7.0,77,0.00,,,0.00,meteohub,2013-09-01 01:14:00,
2013-08-31 21:19:00,81.3,73.4,29.86,SSW,201,1.0,9.0,77,0.00,,,0.00,meteohub,2013-09-01 01:19:00,
2013-08-31 21:24:00,81.1,73.6,29.86,South,181,1.0,9.0,78,0.00,,,0.00,meteohub,2013-09-01 01:24:00,
2013-08-31 21:29:00,81.0,73.4,29.86,SSW,194,0.0,9.0,78,0.00,,,0.00,meteohub,2013-09-01 01:29:00,
2013-08-31 21:34:00,81.0,73.8,29.86,SSW,193,1.0,9.0,79,0.00,,,0.00,meteohub,2013-09-01 01:34:00,
2013-08-31 21:39:00,80.8,73.6,29.87,SSW,194,1.0,9.0,79,0.00,,,0.00,meteohub,2013-09-01 01:39:00,
2013-08-31 21:44:00,80.6,73.9,29.88,South,173,1.0,9.0,80,0.00,,,0.00,meteohub,2013-09-01 01:44:00,
2013-08-31 21:49:00,80.4,73.8,29.88,SSE,155,0.0,8.0,80,0.00,,,0.00,meteohub,2013-09-01 01:49:00,
2013-08-31 21:54:00,80.4,73.8,29.88,South,176,6.0,7.0,80,0.00,,,0.00,meteohub,2013-09-01 01:54:00,
2013-08-31 21:59:00,80.4,73.8,29.88,SSE,159,0.0,7.0,80,0.00,,,0.00,meteohub,2013-09-01 01:59:00,
2013-08-31 22:04:00,80.4,73.8,29.88,South,177,1.0,7.0,80,0.00,,,0.00,meteohub,2013-09-01 02:04:00,
2013-08-31 22:09:00,80.2,73.6,29.88,West,262,1.0,8.0,80,0.00,,,0.00,meteohub,2013-09-01 02:09:00,
2013-08-31 22:14:00,80.2,73.9,29.89,SW,214,2.0,8.0,81,0.00,,,0.00,meteohub,2013-09-01 02:14:00,
2013-08-31 22:19:00,80.1,73.8,29.89,WSW,250,0.0,8.0,81,0.00,,,0.00,meteohub,2013-09-01 02:19:00,
2013-08-31 22:24:00,80.1,73.8,29.89,NW,305,1.0,6.0,81,0.00,,,0.00,meteohub,2013-09-01 02:24:00,
2013-08-31 22:29:00,79.9,73.6,29.88,SW,215,0.0,6.0,81,0.00,,,0.00,meteohub,2013-09-01 02:29:00,
2013-08-31 22:34:00,79.9,73.9,29.88,SSE,166,1.0,6.0,82,0.00,,,0.00,meteohub,2013-09-01 02:34:00,
2013-08-31 22:42:00,79.7,73.8,29.88,SSW,198,1.0,5.0,82,0.00,,,0.00,meteohub,2013-09-01 02:42:00,
2013-08-31 22:47:00,79.5,73.6,29.88,SSW,211,3.0,7.0,82,0.00,,,0.00,meteohub,2013-09-01 02:47:00,
2013-08-31 22:52:00,79.5,73.6,29.88,SE,146,1.0,7.0,82,0.00,,,0.00,meteohub,2013-09-01 02:52:00,
2013-08-31 22:57:00,79.3,73.4,29.88,SSW,195,2.0,7.0,82,0.00,,,0.00,meteohub,2013-09-01 02:57:00,
2013-08-31 23:02:00,79.3,73.4,29.87,SW,235,0.0,6.0,82,0.00,,,0.00,meteohub,2013-09-01 03:02:00,
2013-08-31 23:07:00,79.3,73.8,29.87,NW,324,2.0,6.0,83,0.00,,,0.00,meteohub,2013-09-01 03:07:00,
2013-08-31 23:13:00,79.2,73.6,29.87,WNW,283,1.0,6.0,83,0.00,,,0.00,meteohub,2013-09-01 03:13:00,
2013-08-31 23:18:00,79.2,73.6,29.87,West,277,0.0,5.0,83,0.00,,,0.00,meteohub,2013-09-01 03:18:00,
2013-08-31 23:23:00,79.2,73.6,29.87,WNW,293,1.0,5.0,83,0.00,,,0.00,meteohub,2013-09-01 03:23:00,
2013-08-31 23:28:00,79.2,73.6,29.87,WNW,283,1.0,5.0,83,0.00,,,0.00,meteohub,2013-09-01 03:28:00,
2013-08-31 23:33:00,79.2,73.2,29.87,SW,224,0.0,5.0,82,0.00,,,0.00,meteohub,2013-09-01 03:33:00,
2013-08-31 23:38:00,79.2,73.2,29.87,South,170,0.0,7.0,82,0.00,,,0.00,meteohub,2013-09-01 03:38:00,
2013-08-31 23:43:00,79.0,73.4,29.87,South,170,4.0,7.0,83,0.00,,,0.00,meteohub,2013-09-01 03:43:00,
2013-08-31 23:48:00,79.0,73.0,29.87,ESE,106,0.0,7.0,82,0.00,,,0.00,meteohub,2013-09-01 03:48:00,
2013-08-31 23:53:00,79.0,73.0,29.87,SSE,160,1.0,6.0,82,0.00,,,0.00,meteohub,2013-09-01 03:53:00,
2013-08-31 23:58:00,78.8,72.9,29.87,SSW,196,0.0,6.0,82,0.00,,,0.00,meteohub,2013-09-01 03:58:00,